createdAt,value
2018-05-01T00:00:29.206Z,0
2018-05-01T00:01:39.072Z,0
2018-05-01T00:02:49.211Z,0
2018-05-01T00:03:59.229Z,0
2018-05-01T00:05:09.411Z,0
2018-05-01T00:06:19.591Z,0
2018-05-01T00:07:29.821Z,0
2018-05-01T00:08:39.975Z,0
2018-05-01T00:09:50.119Z,0
2018-05-01T00:11:00.086Z,0
2018-05-01T00:12:10.364Z,0
2018-05-01T00:13:20.283Z,0
2018-05-01T00:14:30.509Z,0
2018-05-01T00:15:40.628Z,0
2018-05-01T00:16:50.776Z,0
2018-05-01T00:18:00.917Z,0
2018-05-01T00:19:11.169Z,0
2018-05-01T00:20:21.404Z,0
2018-05-01T00:21:31.611Z,0
2018-05-01T00:22:41.216Z,0
2018-05-01T00:23:51.353Z,0
2018-05-01T00:25:01.475Z,0
2018-05-01T00:26:11.629Z,0
2018-05-01T00:27:21.770Z,0
2018-05-01T00:28:31.939Z,0
2018-05-01T00:29:42.097Z,0
2018-05-01T00:30:52.224Z,0
2018-05-01T00:32:02.357Z,0
2018-05-01T00:33:12.488Z,0
2018-05-01T00:34:22.357Z,0
2018-05-01T00:35:32.688Z,0
2018-05-01T00:36:42.882Z,0
2018-05-01T00:37:53.013Z,0
2018-05-01T00:39:03.130Z,0
2018-05-01T00:40:14.235Z,0
2018-05-01T00:41:24.422Z,0
2018-05-01T00:42:34.660Z,0
2018-05-01T00:43:44.870Z,0
2018-05-01T00:44:55.010Z,0
2018-05-01T00:46:05.248Z,0
2018-05-01T00:47:15.131Z,0
2018-05-01T00:48:25.002Z,0
2018-05-01T00:49:35.154Z,0
2018-05-01T00:50:45.021Z,0
2018-05-01T00:51:55.329Z,0
2018-05-01T00:53:05.267Z,0
2018-05-01T00:54:15.468Z,0
2018-05-01T00:55:25.367Z,0
2018-05-01T00:56:35.510Z,0
2018-05-01T00:57:45.648Z,0
2018-05-01T00:58:55.787Z,0
2018-05-01T01:00:05.922Z,0
2018-05-01T01:01:16.122Z,0
2018-05-01T01:02:26.265Z,0
2018-05-01T01:03:36.517Z,0
2018-05-01T01:04:47.667Z,0
2018-05-01T01:05:57.796Z,0
2018-05-01T01:07:07.906Z,0
2018-05-01T01:08:17.761Z,0
2018-05-01T01:09:27.906Z,0
2018-05-01T01:10:38.039Z,0
2018-05-01T01:11:47.910Z,0
2018-05-01T01:12:58.064Z,0
2018-05-01T01:14:08.229Z,0
2018-05-01T01:15:18.568Z,0
2018-05-01T01:16:27.824Z,0
2018-05-01T01:17:37.971Z,0
2018-05-01T01:18:48.165Z,0
2018-05-01T01:19:58.416Z,0
2018-05-01T01:21:08.680Z,0
2018-05-01T01:22:18.542Z,0
2018-05-01T01:23:28.654Z,0
2018-05-01T01:24:38.845Z,0
2018-05-01T01:25:48.723Z,0
2018-05-01T01:26:58.847Z,0
2018-05-01T01:28:08.968Z,0
2018-05-01T01:29:19.148Z,0
2018-05-01T01:30:29.338Z,0
2018-05-01T01:31:39.567Z,0
2018-05-01T01:32:49.730Z,0
2018-05-01T01:33:59.936Z,0
2018-05-01T01:35:10.082Z,0
2018-05-01T01:36:19.987Z,0
2018-05-01T01:37:30.172Z,0
2018-05-01T01:38:41.332Z,0
2018-05-01T01:39:51.495Z,0
2018-05-01T01:41:01.810Z,0
2018-05-01T01:42:12.071Z,0
2018-05-01T01:43:22.264Z,0
2018-05-01T01:44:32.402Z,0
2018-05-01T01:45:42.537Z,0
2018-05-01T01:46:52.662Z,0
2018-05-01T01:48:02.823Z,0
2018-05-01T01:49:12.944Z,0
2018-05-01T01:50:23.137Z,0
2018-05-01T01:51:33.336Z,0
2018-05-01T01:52:43.589Z,0
2018-05-01T01:53:53.722Z,0
2018-05-01T01:55:03.632Z,0
2018-05-01T01:56:13.772Z,0
2018-05-01T01:57:23.952Z,0
2018-05-01T01:58:34.124Z,0
2018-05-01T01:59:44.283Z,0
2018-05-01T02:00:54.399Z,0
2018-05-01T02:02:04.284Z,0
2018-05-01T02:03:14.455Z,0
2018-05-01T02:04:24.576Z,0
2018-05-01T02:05:34.693Z,0
2018-05-01T02:06:44.834Z,0
2018-05-01T02:07:55.010Z,0
2018-05-01T02:09:05.165Z,0
2018-05-01T02:10:15.296Z,0
2018-05-01T02:11:25.428Z,0
2018-05-01T02:12:35.555Z,0
2018-05-01T02:13:45.682Z,0
2018-05-01T02:14:55.827Z,0
2018-05-01T02:16:05.776Z,0
2018-05-01T02:17:15.897Z,0
2018-05-01T02:18:26.036Z,0
2018-05-01T02:19:35.977Z,0
2018-05-01T02:20:46.127Z,0
2018-05-01T02:21:56.256Z,0
2018-05-01T02:23:06.428Z,0
2018-05-01T02:24:16.697Z,0
2018-05-01T02:25:26.651Z,0
2018-05-01T02:26:36.796Z,0
2018-05-01T02:27:46.925Z,0
2018-05-01T02:28:57.091Z,0
2018-05-01T02:30:07.354Z,0
2018-05-01T02:31:17.587Z,0
2018-05-01T02:32:27.730Z,0
2018-05-01T02:33:37.929Z,0
2018-05-01T02:34:48.171Z,0
2018-05-01T02:35:58.304Z,0
2018-05-01T02:37:07.944Z,0
2018-05-01T02:38:17.813Z,0
2018-05-01T02:39:28.022Z,0
2018-05-01T02:40:38.234Z,0
2018-05-01T02:41:48.364Z,0
2018-05-01T02:42:58.486Z,0
2018-05-01T02:44:08.701Z,0
2018-05-01T02:45:18.862Z,0
2018-05-01T02:46:29.049Z,0
2018-05-01T02:47:39.180Z,0
2018-05-01T02:48:50.024Z,0
2018-05-01T02:50:00.177Z,0
2018-05-01T02:51:10.321Z,0
2018-05-01T02:52:20.469Z,0
2018-05-01T02:53:30.664Z,0
2018-05-01T02:54:40.789Z,0
2018-05-01T02:55:50.913Z,0
2018-05-01T02:57:00.804Z,0
2018-05-01T02:58:10.687Z,0
2018-05-01T02:59:20.863Z,0
2018-05-01T03:00:31.004Z,0
2018-05-01T03:01:41.195Z,0
2018-05-01T03:02:51.344Z,0
2018-05-01T03:04:01.475Z,0
2018-05-01T03:05:11.608Z,0
2018-05-01T03:06:21.758Z,0
2018-05-01T03:07:31.898Z,0
2018-05-01T03:08:42.165Z,0
2018-05-01T03:09:52.780Z,0
2018-05-01T03:11:02.687Z,0
2018-05-01T03:12:13.048Z,0
2018-05-01T03:13:23.183Z,0
2018-05-01T03:14:33.397Z,0
2018-05-01T03:15:43.530Z,0
2018-05-01T03:16:53.712Z,0
2018-05-01T03:18:03.854Z,0
2018-05-01T03:19:14.035Z,0
2018-05-01T03:20:24.165Z,0
2018-05-01T03:21:34.324Z,0
2018-05-01T03:22:44.469Z,0
2018-05-01T03:23:54.593Z,0
2018-05-01T03:25:04.768Z,0
2018-05-01T03:26:14.683Z,0
2018-05-01T03:27:24.834Z,0
2018-05-01T03:28:35.002Z,0
2018-05-01T03:29:45.201Z,0
2018-05-01T03:30:55.376Z,0
2018-05-01T03:32:05.584Z,0
2018-05-01T03:33:15.166Z,0
2018-05-01T03:34:25.277Z,0
2018-05-01T03:35:35.436Z,0
2018-05-01T03:36:45.631Z,0
2018-05-01T03:37:55.787Z,0
2018-05-01T03:39:05.980Z,0
2018-05-01T03:40:16.136Z,5
2018-05-01T03:41:26.370Z,5
2018-05-01T03:42:36.508Z,5
2018-05-01T03:43:46.634Z,5
2018-05-01T03:44:56.764Z,5
2018-05-01T03:46:06.882Z,5
2018-05-01T03:47:16.774Z,5
2018-05-01T03:48:26.956Z,10
2018-05-01T03:49:37.111Z,10
2018-05-01T03:50:47.333Z,10
2018-05-01T03:51:57.503Z,10
2018-05-01T03:53:07.645Z,10
2018-05-01T03:54:17.853Z,10
2018-05-01T03:55:28.148Z,15
2018-05-01T03:56:38.402Z,15
2018-05-01T03:57:48.573Z,15
2018-05-01T03:58:58.448Z,15
2018-05-01T04:00:08.707Z,15
2018-05-01T04:01:18.825Z,20
2018-05-01T04:02:28.722Z,20
2018-05-01T04:03:38.887Z,20
2018-05-01T04:04:49.021Z,25
2018-05-01T04:05:59.265Z,25
2018-05-01T04:07:09.022Z,25
2018-05-01T04:08:18.894Z,25
2018-05-01T04:09:29.015Z,30
2018-05-01T04:10:38.884Z,30
2018-05-01T04:11:49.006Z,35
2018-05-01T04:12:59.138Z,35
2018-05-01T04:14:09.293Z,35
2018-05-01T04:15:19.448Z,40
2018-05-01T04:16:29.657Z,40
2018-05-01T04:17:39.570Z,40
2018-05-01T04:18:49.686Z,45
2018-05-01T04:19:59.808Z,45
2018-05-01T04:21:09.683Z,50
2018-05-01T04:22:19.845Z,50
2018-05-01T04:23:29.998Z,50
2018-05-01T04:24:39.954Z,50
2018-05-01T04:25:50.144Z,50
2018-05-01T04:27:00.295Z,55
2018-05-01T04:28:10.452Z,55
2018-05-01T04:29:20.746Z,55
2018-05-01T04:30:30.622Z,55
2018-05-01T04:31:40.750Z,55
2018-05-01T04:32:50.880Z,60
2018-05-01T04:34:00.996Z,60
2018-05-01T04:35:10.586Z,55
2018-05-01T04:36:20.705Z,55
2018-05-01T04:37:30.475Z,55
2018-05-01T04:38:40.597Z,60
2018-05-01T04:39:50.476Z,55
2018-05-01T04:41:00.652Z,55
2018-05-01T04:42:10.600Z,60
2018-05-01T04:43:20.218Z,60
2018-05-01T04:44:30.358Z,70
2018-05-01T04:45:40.497Z,70
2018-05-01T04:46:50.642Z,65
2018-05-01T04:48:00.868Z,65
2018-05-01T04:49:10.993Z,75
2018-05-01T04:50:21.381Z,70
2018-05-01T04:51:31.515Z,65
2018-05-01T04:52:41.709Z,70
2018-05-01T04:53:51.890Z,80
2018-05-01T04:55:02.074Z,70
2018-05-01T04:56:12.224Z,75
2018-05-01T04:57:22.105Z,65
2018-05-01T04:58:32.137Z,75
2018-05-01T04:59:42.269Z,80
2018-05-01T05:00:52.391Z,80
2018-05-01T05:02:02.534Z,80
2018-05-01T05:03:12.694Z,70
2018-05-01T05:04:22.858Z,80
2018-05-01T05:05:32.734Z,85
2018-05-01T05:06:42.980Z,85
2018-05-01T05:07:53.183Z,85
2018-05-01T05:09:03.398Z,80
2018-05-01T05:10:13.611Z,80
2018-05-01T05:11:23.742Z,85
2018-05-01T05:12:33.621Z,90
2018-05-01T05:13:43.489Z,95
2018-05-01T05:14:53.421Z,95
2018-05-01T05:16:03.661Z,95
2018-05-01T05:17:13.864Z,90
2018-05-01T05:18:24.035Z,90
2018-05-01T05:19:33.946Z,100
2018-05-01T05:20:44.107Z,105
2018-05-01T05:21:54.256Z,105
2018-05-01T05:23:04.457Z,105
2018-05-01T05:24:14.659Z,105
2018-05-01T05:25:24.882Z,105
2018-05-01T05:26:35.004Z,105
2018-05-01T05:27:45.115Z,105
2018-05-01T05:28:55.273Z,105
2018-05-01T05:30:05.436Z,110
2018-05-01T05:31:15.582Z,115
2018-05-01T05:32:25.766Z,110
2018-05-01T05:33:35.925Z,110
2018-05-01T05:34:45.818Z,110
2018-05-01T05:35:55.772Z,115
2018-05-01T05:37:05.916Z,115
2018-05-01T05:38:16.055Z,115
2018-05-01T05:39:26.211Z,115
2018-05-01T05:40:35.996Z,115
2018-05-01T05:41:46.249Z,115
2018-05-01T05:42:56.647Z,115
2018-05-01T05:44:06.774Z,120
2018-05-01T05:45:16.900Z,120
2018-05-01T05:46:27.029Z,120
2018-05-01T05:47:37.160Z,120
2018-05-01T05:48:47.439Z,120
2018-05-01T05:49:57.694Z,120
2018-05-01T05:51:07.937Z,125
2018-05-01T05:52:18.124Z,125
2018-05-01T05:53:28.274Z,125
2018-05-01T05:54:38.523Z,125
2018-05-01T05:55:48.816Z,125
2018-05-01T05:56:58.985Z,125
2018-05-01T05:58:09.140Z,130
2018-05-01T05:59:19.303Z,130
2018-05-01T06:00:29.452Z,130
2018-05-01T06:01:39.577Z,130
2018-05-01T06:02:49.743Z,130
2018-05-01T06:03:59.922Z,130
2018-05-01T06:05:10.086Z,130
2018-05-01T06:06:20.242Z,130
2018-05-01T06:07:30.525Z,130
2018-05-01T06:08:40.787Z,135
2018-05-01T06:09:50.770Z,135
2018-05-01T06:11:00.915Z,135
2018-05-01T06:12:11.089Z,135
2018-05-01T06:13:21.214Z,135
2018-05-01T06:14:31.349Z,135
2018-05-01T06:15:42.469Z,135
2018-05-01T06:16:52.664Z,135
2018-05-01T06:18:02.901Z,135
2018-05-01T06:19:13.081Z,140
2018-05-01T06:20:23.001Z,145
2018-05-01T06:21:32.892Z,140
2018-05-01T06:22:43.024Z,150
2018-05-01T06:23:53.143Z,150
2018-05-01T06:25:03.277Z,155
2018-05-01T06:26:12.990Z,160
2018-05-01T06:27:22.873Z,180
2018-05-01T06:28:33.025Z,170
2018-05-01T06:29:43.195Z,170
2018-05-01T06:30:53.319Z,180
2018-05-01T06:32:03.465Z,200
2018-05-01T06:33:13.616Z,190
2018-05-01T06:34:23.787Z,220
2018-05-01T06:35:34.052Z,220
2018-05-01T06:36:44.255Z,205
2018-05-01T06:37:54.145Z,220
2018-05-01T06:39:04.274Z,275
2018-05-01T06:40:14.420Z,250
2018-05-01T06:41:24.573Z,225
2018-05-01T06:42:34.728Z,240
2018-05-01T06:43:45.008Z,255
2018-05-01T06:44:55.143Z,230
2018-05-01T06:46:05.352Z,260
2018-05-01T06:47:15.808Z,295
2018-05-01T06:48:26.918Z,290
2018-05-01T06:49:37.091Z,260
2018-05-01T06:50:47.437Z,260
2018-05-01T06:51:57.699Z,245
2018-05-01T06:53:07.834Z,280
2018-05-01T06:54:17.712Z,290
2018-05-01T06:55:27.848Z,335
2018-05-01T06:56:38.015Z,325
2018-05-01T06:57:48.468Z,275
2018-05-01T06:58:59.558Z,300
2018-05-01T07:00:09.769Z,270
2018-05-01T07:01:19.652Z,290
2018-05-01T07:02:29.782Z,335
2018-05-01T07:03:39.373Z,310
2018-05-01T07:04:49.654Z,320
2018-05-01T07:05:59.818Z,320
2018-05-01T07:07:09.998Z,360
2018-05-01T07:08:20.160Z,340
2018-05-01T07:09:30.384Z,360
2018-05-01T07:10:40.566Z,315
2018-05-01T07:11:50.788Z,320
2018-05-01T07:13:01.054Z,360
2018-05-01T07:14:11.240Z,365
2018-05-01T07:15:21.460Z,335
2018-05-01T07:16:31.638Z,390
2018-05-01T07:17:42.016Z,380
2018-05-01T07:18:52.181Z,290
2018-05-01T07:20:02.336Z,370
2018-05-01T07:21:12.712Z,400
2018-05-01T07:22:22.856Z,400
2018-05-01T07:23:32.485Z,360
2018-05-01T07:24:42.654Z,345
2018-05-01T07:25:52.944Z,340
2018-05-01T07:27:03.169Z,320
2018-05-01T07:28:12.711Z,295
2018-05-01T07:29:22.588Z,255
2018-05-01T07:30:32.479Z,290
2018-05-01T07:31:42.112Z,305
2018-05-01T07:32:52.297Z,285
2018-05-01T07:34:02.553Z,330
2018-05-01T07:35:12.755Z,325
2018-05-01T07:36:22.662Z,275
2018-05-01T07:37:32.561Z,310
2018-05-01T07:38:42.703Z,300
2018-05-01T07:39:52.488Z,345
2018-05-01T07:41:02.612Z,315
2018-05-01T07:42:12.491Z,280
2018-05-01T07:43:22.668Z,300
2018-05-01T07:44:32.852Z,295
2018-05-01T07:45:43.995Z,295
2018-05-01T07:46:54.240Z,275
2018-05-01T07:48:04.079Z,380
2018-05-01T07:49:14.653Z,335
2018-05-01T07:50:24.794Z,365
2018-05-01T07:51:34.986Z,300
2018-05-01T07:52:45.154Z,305
2018-05-01T07:53:55.398Z,380
2018-05-01T07:55:05.555Z,395
2018-05-01T07:56:15.711Z,320
2018-05-01T07:57:25.847Z,405
2018-05-01T07:58:36.009Z,455
2018-05-01T07:59:46.148Z,425
2018-05-01T08:00:56.366Z,385
2018-05-01T08:02:06.273Z,355
2018-05-01T08:03:16.447Z,310
2018-05-01T08:04:26.600Z,380
2018-05-01T08:05:36.767Z,370
2018-05-01T08:06:46.911Z,400
2018-05-01T08:07:57.091Z,345
2018-05-01T08:09:07.262Z,460
2018-05-01T08:10:17.415Z,365
2018-05-01T08:11:27.581Z,440
2018-05-01T08:12:37.725Z,470
2018-05-01T08:13:47.908Z,415
2018-05-01T08:14:58.135Z,465
2018-05-01T08:16:08.311Z,550
2018-05-01T08:17:18.392Z,575
2018-05-01T08:18:28.613Z,510
2018-05-01T08:19:38.809Z,650
2018-05-01T08:20:49.025Z,560
2018-05-01T08:21:59.254Z,460
2018-05-01T08:23:09.550Z,680
2018-05-01T08:24:19.749Z,725
2018-05-01T08:25:30.048Z,605
2018-05-01T08:26:40.228Z,510
2018-05-01T08:27:50.395Z,545
2018-05-01T08:29:00.585Z,815
2018-05-01T08:30:10.852Z,585
2018-05-01T08:31:21.049Z,465
2018-05-01T08:32:31.218Z,770
2018-05-01T08:33:41.527Z,590
2018-05-01T08:34:51.426Z,440
2018-05-01T08:36:01.567Z,465
2018-05-01T08:37:11.849Z,1065
2018-05-01T08:38:22.043Z,380
2018-05-01T08:39:32.223Z,2285
2018-05-01T08:40:42.136Z,425
2018-05-01T08:41:52.319Z,425
2018-05-01T08:43:02.478Z,645
2018-05-01T08:44:12.491Z,445
2018-05-01T08:45:22.709Z,495
2018-05-01T08:46:32.644Z,540
2018-05-01T08:47:42.833Z,400
2018-05-01T08:48:53.020Z,2305
2018-05-01T08:50:03.198Z,2945
2018-05-01T08:51:13.348Z,2925
2018-05-01T08:52:23.538Z,1240
2018-05-01T08:53:33.704Z,2515
2018-05-01T08:54:43.895Z,2500
2018-05-01T08:55:54.059Z,2570
2018-05-01T08:57:04.243Z,2590
2018-05-01T08:58:14.472Z,2925
2018-05-01T08:59:24.670Z,740
2018-05-01T09:00:34.844Z,730
2018-05-01T09:01:45.057Z,2685
2018-05-01T09:02:54.875Z,2660
2018-05-01T09:04:05.101Z,2675
2018-05-01T09:05:15.300Z,985
2018-05-01T09:06:25.556Z,2650
2018-05-01T09:07:35.740Z,2705
2018-05-01T09:09:59.145Z,655
2018-05-01T09:12:26.624Z,2215
2018-05-01T09:13:36.882Z,2150
2018-05-01T09:14:51.254Z,2710
2018-05-01T09:16:01.472Z,2820
2018-05-01T09:17:11.920Z,2875
2018-05-01T09:18:23.131Z,3070
2018-05-01T09:19:33.283Z,3085
2018-05-01T09:20:43.630Z,3150
2018-05-01T09:21:53.808Z,2830
2018-05-01T09:23:03.971Z,905
2018-05-01T09:24:14.022Z,750
2018-05-01T09:25:24.288Z,980
2018-05-01T09:26:34.648Z,710
2018-05-01T09:27:44.878Z,2460
2018-05-01T09:28:55.079Z,3090
2018-05-01T09:30:05.266Z,2720
2018-05-01T09:31:15.549Z,570
2018-05-01T09:32:25.529Z,605
2018-05-01T09:33:35.711Z,500
2018-05-01T09:34:45.896Z,645
2018-05-01T09:35:56.033Z,2770
2018-05-01T09:37:06.291Z,2550
2018-05-01T09:38:16.128Z,495
2018-05-01T09:39:26.345Z,605
2018-05-01T09:40:36.512Z,730
2018-05-01T09:41:46.756Z,640
2018-05-01T09:42:56.947Z,460
2018-05-01T09:44:07.319Z,545
2018-05-01T09:45:17.496Z,695
2018-05-01T09:46:27.699Z,605
2018-05-01T09:47:38.350Z,470
2018-05-01T09:48:48.574Z,415
2018-05-01T09:49:58.772Z,480
2018-05-01T09:51:08.993Z,435
2018-05-01T09:52:19.210Z,540
2018-05-01T09:53:29.326Z,455
2018-05-01T09:54:39.353Z,410
2018-05-01T09:55:49.550Z,420
2018-05-01T09:56:59.722Z,465
2018-05-01T09:58:09.704Z,525
2018-05-01T09:59:19.987Z,495
2018-05-01T10:00:30.140Z,425
2018-05-01T10:01:40.233Z,430
2018-05-01T10:02:50.424Z,430
2018-05-01T10:04:00.715Z,440
2018-05-01T10:05:11.011Z,445
2018-05-01T10:06:20.982Z,450
2018-05-01T10:07:31.239Z,420
2018-05-01T10:08:41.469Z,290
2018-05-01T10:09:51.670Z,270
2018-05-01T10:11:01.870Z,235
2018-05-01T10:12:12.136Z,235
2018-05-01T10:13:22.355Z,255
2018-05-01T10:14:32.535Z,295
2018-05-01T10:15:42.733Z,295
2018-05-01T10:16:53.000Z,330
2018-05-01T10:18:03.267Z,380
2018-05-01T10:19:14.444Z,360
2018-05-01T10:20:24.413Z,340
2018-05-01T10:21:34.709Z,290
2018-05-01T10:22:44.895Z,325
2018-05-01T10:23:54.859Z,320
2018-05-01T10:25:05.039Z,290
2018-05-01T10:26:15.055Z,280
2018-05-01T10:27:25.285Z,275
2018-05-01T10:28:35.477Z,280
2018-05-01T10:29:45.882Z,355
2018-05-01T10:30:56.088Z,370
2018-05-01T10:32:06.280Z,345
2018-05-01T10:33:16.532Z,295
2018-05-01T10:34:26.761Z,295
2018-05-01T10:35:36.596Z,335
2018-05-01T10:36:46.864Z,445
2018-05-01T10:37:56.818Z,395
2018-05-01T10:39:07.506Z,410
2018-05-01T10:40:17.690Z,380
2018-05-01T10:41:27.907Z,385
2018-05-01T10:42:38.190Z,330
2018-05-01T10:43:48.343Z,285
2018-05-01T10:44:58.622Z,260
2018-05-01T10:46:08.837Z,225
2018-05-01T10:47:19.987Z,230
2018-05-01T10:48:30.192Z,285
2018-05-01T10:49:40.474Z,300
2018-05-01T10:50:50.701Z,275
2018-05-01T10:52:00.957Z,240
2018-05-01T10:53:11.164Z,225
2018-05-01T10:54:22.341Z,225
2018-05-01T10:55:32.545Z,280
2018-05-01T10:56:42.766Z,320
2018-05-01T10:57:53.095Z,285
2018-05-01T10:59:03.299Z,325
2018-05-01T11:00:13.516Z,280
2018-05-01T11:01:23.720Z,305
2018-05-01T11:02:33.960Z,365
2018-05-01T11:03:43.958Z,440
2018-05-01T11:04:54.187Z,475
2018-05-01T11:06:04.516Z,425
2018-05-01T11:07:14.755Z,375
2018-05-01T11:08:25.112Z,365
2018-05-01T11:09:35.054Z,325
2018-05-01T11:10:45.404Z,310
2018-05-01T11:11:55.944Z,330
2018-05-01T11:13:06.146Z,350
2018-05-01T11:14:16.331Z,415
2018-05-01T11:15:26.524Z,455
2018-05-01T11:16:36.768Z,445
2018-05-01T11:17:46.980Z,415
2018-05-01T11:18:57.151Z,440
2018-05-01T11:20:07.087Z,410
2018-05-01T11:21:17.412Z,380
2018-05-01T11:22:27.641Z,375
2018-05-01T11:23:37.900Z,380
2018-05-01T11:24:48.438Z,400
2018-05-01T11:26:00.238Z,465
2018-05-01T11:27:10.475Z,435
2018-05-01T11:28:20.710Z,550
2018-05-01T11:29:30.651Z,665
2018-05-01T11:30:40.817Z,1080
2018-05-01T11:31:51.048Z,1605
2018-05-01T11:33:01.368Z,890
2018-05-01T11:34:11.584Z,770
2018-05-01T11:35:21.747Z,710
2018-05-01T11:36:31.934Z,550
2018-05-01T11:37:42.132Z,490
2018-05-01T11:38:52.375Z,435
2018-05-01T11:40:02.629Z,480
2018-05-01T11:41:12.846Z,635
2018-05-01T11:42:23.076Z,620
2018-05-01T11:43:33.257Z,715
2018-05-01T11:44:43.449Z,675
2018-05-01T11:45:53.859Z,505
2018-05-01T11:47:04.133Z,475
2018-05-01T11:48:14.327Z,445
2018-05-01T11:49:24.911Z,475
2018-05-01T11:50:34.976Z,540
2018-05-01T11:51:44.599Z,480
2018-05-01T11:52:54.849Z,430
2018-05-01T11:54:05.125Z,525
2018-05-01T11:55:15.333Z,515
2018-05-01T11:56:25.515Z,440
2018-05-01T11:57:35.890Z,525
2018-05-01T11:58:46.171Z,595
2018-05-01T11:59:56.390Z,590
2018-05-01T12:01:06.607Z,1540
2018-05-01T12:02:16.917Z,970
2018-05-01T12:03:27.203Z,3290
2018-05-01T12:04:37.539Z,3545
2018-05-01T12:05:47.824Z,3855
2018-05-01T12:06:58.040Z,2950
2018-05-01T12:08:08.264Z,955
2018-05-01T12:09:18.540Z,4200
2018-05-01T12:10:28.979Z,3830
2018-05-01T12:11:39.478Z,2355
2018-05-01T12:12:49.527Z,895
2018-05-01T12:13:59.857Z,780
2018-05-01T12:15:09.781Z,830
2018-05-01T12:16:19.902Z,935
2018-05-01T12:17:30.695Z,920
2018-05-01T12:18:41.581Z,865
2018-05-01T12:19:51.675Z,850
2018-05-01T12:21:01.918Z,920
2018-05-01T12:22:12.217Z,3215
2018-05-01T12:23:22.444Z,1800
2018-05-01T12:24:32.993Z,800
2018-05-01T12:25:43.288Z,690
2018-05-01T12:26:53.551Z,660
2018-05-01T12:28:03.798Z,655
2018-05-01T12:29:14.054Z,620
2018-05-01T12:30:24.578Z,630
2018-05-01T12:31:34.520Z,665
2018-05-01T12:32:44.733Z,675
2018-05-01T12:33:55.052Z,740
2018-05-01T12:35:05.353Z,2830
2018-05-01T12:36:15.564Z,1755
2018-05-01T12:37:25.524Z,710
2018-05-01T12:38:35.829Z,610
2018-05-01T12:39:46.302Z,485
2018-05-01T12:40:56.899Z,475
2018-05-01T12:42:07.613Z,750
2018-05-01T12:43:18.057Z,660
2018-05-01T12:44:28.296Z,650
2018-05-01T12:45:38.284Z,585
2018-05-01T12:46:48.535Z,510
2018-05-01T12:47:58.474Z,520
2018-05-01T12:49:08.701Z,820
2018-05-01T12:50:18.941Z,875
2018-05-01T12:51:29.131Z,1970
2018-05-01T12:52:39.367Z,735
2018-05-01T12:53:49.998Z,640
2018-05-01T12:55:00.592Z,870
2018-05-01T12:56:11.869Z,805
2018-05-01T12:57:22.237Z,825
2018-05-01T12:58:32.797Z,840
2018-05-01T12:59:43.249Z,860
2018-05-01T13:00:53.497Z,615
2018-05-01T13:02:03.694Z,605
2018-05-01T13:03:13.941Z,690
2018-05-01T13:04:24.181Z,2795
2018-05-01T13:05:34.557Z,2835
2018-05-01T13:06:44.977Z,2825
2018-05-01T13:07:55.211Z,1485
2018-05-01T13:09:05.218Z,790
2018-05-01T13:10:15.459Z,740
2018-05-01T13:11:25.655Z,785
2018-05-01T13:12:36.178Z,2560
2018-05-01T13:13:46.533Z,3210
2018-05-01T13:14:56.833Z,2705
2018-05-01T13:16:07.055Z,2920
2018-05-01T13:17:17.226Z,840
2018-05-01T13:18:27.547Z,690
2018-05-01T13:19:37.738Z,950
2018-05-01T13:20:48.194Z,725
2018-05-01T13:21:58.136Z,875
2018-05-01T13:23:08.069Z,3160
2018-05-01T13:24:18.177Z,1860
2018-05-01T13:25:28.347Z,850
2018-05-01T13:26:38.612Z,700
2018-05-01T13:27:48.886Z,1490
2018-05-01T13:28:59.149Z,915
2018-05-01T13:30:09.325Z,880
2018-05-01T13:31:19.548Z,645
2018-05-01T13:32:29.999Z,1770
2018-05-01T13:33:40.421Z,600
2018-05-01T13:34:50.594Z,470
2018-05-01T13:36:00.781Z,380
2018-05-01T13:37:10.996Z,415
2018-05-01T13:38:21.275Z,425
2018-05-01T13:39:31.470Z,475
2018-05-01T13:40:41.793Z,490
2018-05-01T13:41:52.018Z,540
2018-05-01T13:43:02.204Z,535
2018-05-01T13:44:12.458Z,570
2018-05-01T13:45:22.917Z,850
2018-05-01T13:46:33.295Z,1135
2018-05-01T13:47:43.271Z,1070
2018-05-01T13:48:53.586Z,840
2018-05-01T13:50:03.821Z,690
2018-05-01T13:51:14.154Z,760
2018-05-01T13:52:24.408Z,660
2018-05-01T13:53:34.631Z,605
2018-05-01T13:54:44.910Z,625
2018-05-01T13:55:55.236Z,740
2018-05-01T13:57:05.510Z,500
2018-05-01T13:58:15.554Z,440
2018-05-01T13:59:25.748Z,345
2018-05-01T14:00:36.108Z,315
2018-05-01T14:01:46.388Z,320
2018-05-01T14:02:56.581Z,320
2018-05-01T14:04:06.809Z,325
2018-05-01T14:05:17.007Z,305
2018-05-01T14:06:27.703Z,305
2018-05-01T14:07:37.922Z,325
2018-05-01T14:08:48.123Z,325
2018-05-01T14:09:58.376Z,325
2018-05-01T14:11:09.143Z,325
2018-05-01T14:12:19.448Z,325
2018-05-01T14:13:29.647Z,370
2018-05-01T14:14:40.169Z,415
2018-05-01T14:15:50.114Z,445
2018-05-01T14:17:00.607Z,405
2018-05-01T14:18:10.825Z,380
2018-05-01T14:19:21.292Z,360
2018-05-01T14:20:31.497Z,340
2018-05-01T14:21:41.569Z,290
2018-05-01T14:22:51.756Z,240
2018-05-01T14:24:02.078Z,220
2018-05-01T14:25:12.277Z,205
2018-05-01T14:26:22.104Z,205
2018-05-01T14:27:32.337Z,230
2018-05-01T14:28:42.552Z,255
2018-05-01T14:29:52.763Z,255
2018-05-01T14:31:03.001Z,220
2018-05-01T14:32:13.165Z,195
2018-05-01T14:33:23.365Z,185
2018-05-01T14:34:33.607Z,175
2018-05-01T14:35:43.807Z,155
2018-05-01T14:36:54.240Z,150
2018-05-01T14:38:04.541Z,145
2018-05-01T14:39:14.516Z,145
2018-05-01T14:40:24.805Z,150
2018-05-01T14:41:35.053Z,150
2018-05-01T14:42:44.931Z,145
2018-05-01T14:43:55.215Z,130
2018-05-01T14:45:05.466Z,135
2018-05-01T14:46:15.674Z,140
2018-05-01T14:47:25.910Z,145
2018-05-01T14:48:36.160Z,150
2018-05-01T14:49:46.728Z,170
2018-05-01T14:50:56.934Z,195
2018-05-01T14:52:07.191Z,215
2018-05-01T14:53:17.452Z,230
2018-05-01T14:54:27.435Z,255
2018-05-01T14:55:38.672Z,255
2018-05-01T14:56:48.983Z,230
2018-05-01T14:58:00.189Z,215
2018-05-01T14:59:10.456Z,215
2018-05-01T15:00:20.727Z,215
2018-05-01T15:01:31.562Z,220
2018-05-01T15:02:41.797Z,235
2018-05-01T15:03:52.432Z,245
2018-05-01T15:05:02.840Z,260
2018-05-01T15:06:13.097Z,280
2018-05-01T15:07:23.429Z,290
2018-05-01T15:08:33.429Z,310
2018-05-01T15:09:43.751Z,310
2018-05-01T15:10:54.337Z,325
2018-05-01T15:12:04.817Z,335
2018-05-01T15:13:16.172Z,335
2018-05-01T15:14:26.667Z,350
2018-05-01T15:15:36.685Z,345
2018-05-01T15:16:46.937Z,350
2018-05-01T15:17:57.261Z,350
2018-05-01T15:19:07.828Z,360
2018-05-01T15:20:18.166Z,370
2018-05-01T15:21:28.171Z,370
2018-05-01T15:22:38.382Z,355
2018-05-01T15:23:48.651Z,335
2018-05-01T15:24:58.907Z,370
2018-05-01T15:26:09.147Z,450
2018-05-01T15:27:19.400Z,505
2018-05-01T15:28:29.641Z,500
2018-05-01T15:29:39.877Z,610
2018-05-01T15:30:50.071Z,425
2018-05-01T15:32:00.336Z,420
2018-05-01T15:33:10.741Z,360
2018-05-01T15:34:20.768Z,340
2018-05-01T15:35:31.052Z,315
2018-05-01T15:36:41.284Z,285
2018-05-01T15:37:51.773Z,275
2018-05-01T15:39:02.001Z,260
2018-05-01T15:40:12.298Z,255
2018-05-01T15:41:22.507Z,245
2018-05-01T15:42:32.814Z,235
2018-05-01T15:43:43.143Z,230
2018-05-01T15:44:53.511Z,225
2018-05-01T15:46:03.842Z,225
2018-05-01T15:47:14.098Z,225
2018-05-01T15:48:24.443Z,220
2018-05-01T15:49:34.697Z,220
2018-05-01T15:50:45.011Z,215
2018-05-01T15:51:55.241Z,215
2018-05-01T15:53:05.635Z,215
2018-05-01T15:54:15.886Z,210
2018-05-01T15:55:26.109Z,210
2018-05-01T15:56:37.258Z,205
2018-05-01T15:57:47.498Z,205
2018-05-01T15:58:57.685Z,205
2018-05-01T16:00:07.905Z,205
2018-05-01T16:01:18.085Z,200
2018-05-01T16:02:28.260Z,200
2018-05-01T16:03:38.592Z,200
2018-05-01T16:04:48.855Z,195
2018-05-01T16:05:59.098Z,195
2018-05-01T16:07:09.345Z,195
2018-05-01T16:08:19.562Z,195
2018-05-01T16:09:29.793Z,195
2018-05-01T16:10:40.009Z,195
2018-05-01T16:11:50.282Z,190
2018-05-01T16:13:00.517Z,190
2018-05-01T16:14:11.160Z,190
2018-05-01T16:15:21.553Z,190
2018-05-01T16:16:31.852Z,185
2018-05-01T16:17:42.191Z,180
2018-05-01T16:18:52.554Z,175
2018-05-01T16:20:02.655Z,175
2018-05-01T16:21:12.959Z,175
2018-05-01T16:22:23.206Z,175
2018-05-01T16:23:33.464Z,170
2018-05-01T16:24:43.811Z,170
2018-05-01T16:25:54.314Z,170